Time;durP1;ratioP1;P1;durP2;ratioP2;P2;SDS_P1;SDS_P2;PMS_P1;PMS_P2;Temp;Humidity;BMP_temperature;BMP_pressure;BME280_temperature;BME280_humidity;BME280_pressure;Samples;Min_cycle;Max_cycle;Signal;HPM_P1;HPM_P2
2022/07/09 00:02:26;;;;;;;1.20;1.10;;;;;;;22.86;50.93;101428.13;5073283;28;20045;-75
2022/07/09 00:04:54;;;;;;;1.08;0.95;;;;;;;22.76;51.41;101441.31;5073382;28;20403;-75
2022/07/09 00:07:22;;;;;;;1.20;1.00;;;;;;;22.66;52.08;101428.63;5073480;28;20036;-75
2022/07/09 00:09:49;;;;;;;1.80;0.77;;;;;;;22.74;51.37;101435.28;5072146;28;20502;-75
2022/07/09 00:12:17;;;;;;;0.93;0.70;;;;;;;22.68;51.42;101440.25;5072755;28;20045;-75
2022/07/09 00:14:45;;;;;;;2.15;0.90;;;;;;;22.52;52.00;101434.47;5073464;28;20048;-75
2022/07/09 00:17:13;;;;;;;1.13;1.02;;;;;;;22.39;52.23;101435.56;5073325;28;20053;-75
2022/07/09 00:19:41;;;;;;;1.08;0.88;;;;;;;22.51;51.79;101426.41;5066880;28;20510;-74
2022/07/09 00:22:09;;;;;;;0.80;0.80;;;;;;;22.43;52.39;101433.69;5073606;28;20040;-75
2022/07/09 00:24:37;;;;;;;1.30;1.17;;;;;;;22.50;52.03;101442.34;5073056;28;20502;-75
2022/07/09 00:27:05;;;;;;;1.30;1.10;;;;;;;22.52;51.95;101434.47;5073060;28;20060;-75
2022/07/09 00:29:34;;;;;;;3.15;0.90;;;;;;;22.46;51.96;101435.00;5072520;28;20048;-75
2022/07/09 00:32:02;;;;;;;1.65;0.80;;;;;;;22.38;52.32;101431.13;5072869;28;20048;-75
2022/07/09 00:34:29;;;;;;;0.80;0.80;;;;;;;22.32;51.98;101436.09;5072509;28;20064;-75
2022/07/09 00:36:57;;;;;;;0.90;0.88;;;;;;;22.21;52.72;101430.13;5072744;28;20055;-75
2022/07/09 00:39:26;;;;;;;0.90;0.80;;;;;;;22.28;51.98;101424.81;5072802;28;20044;-75
2022/07/09 00:42:05;;;;;;;1.80;0.73;;;;;;;22.39;51.36;101429.97;5060714;28;20049;-75
2022/07/09 00:44:33;;;;;;;2.30;1.17;;;;;;;22.26;51.82;101427.13;5071597;28;20407;-75
2022/07/09 00:47:03;;;;;;;2.25;1.20;;;;;;;22.21;51.67;101424.53;5069207;28;20048;-75
2022/07/09 00:49:34;;;;;;;0.73;0.63;;;;;;;22.07;52.18;101422.00;5071194;28;20051;-75
2022/07/09 00:52:02;;;;;;;1.67;0.73;;;;;;;21.89;52.93;101426.88;5072478;28;20510;-75
2022/07/09 00:54:30;;;;;;;0.73;0.73;;;;;;;21.99;52.07;101429.25;5072331;28;20045;-75
2022/07/09 00:56:58;;;;;;;1.02;0.77;;;;;;;21.87;52.96;101420.81;5072642;28;20063;-75
2022/07/09 00:59:26;;;;;;;0.80;0.80;;;;;;;21.99;52.45;101406.97;5071144;28;20496;-75
2022/07/09 01:01:54;;;;;;;1.25;0.93;;;;;;;21.98;52.59;101419.28;5072539;28;20483;-75
2022/07/09 01:04:22;;;;;;;0.88;0.88;;;;;;;21.91;53.12;101413.44;5072410;28;20059;-75
2022/07/09 01:06:50;;;;;;;1.42;0.88;;;;;;;21.82;53.14;101413.50;5072520;28;20040;-75
2022/07/09 01:09:18;;;;;;;3.35;0.70;;;;;;;21.80;52.82;101404.63;5075946;28;20055;-75
2022/07/09 01:11:47;;;;;;;0.73;0.73;;;;;;;21.79;52.91;101393.84;5092185;28;20414;-74
2022/07/09 01:14:15;;;;;;;1.38;0.88;;;;;;;21.74;53.39;101397.63;5092647;28;20052;-75
2022/07/09 01:16:43;;;;;;;1.25;0.70;;;;;;;21.64;53.77;101403.56;5092675;28;20043;-75
2022/07/09 01:19:11;;;;;;;0.80;0.80;;;;;;;21.54;53.87;101397.22;5092552;28;20478;-75
2022/07/09 01:21:39;;;;;;;2.78;1.40;;;;;;;21.54;53.57;101388.88;5092073;28;20043;-75
2022/07/09 01:24:07;;;;;;;0.47;0.47;;;;;;;21.53;53.91;101397.53;5092317;28;20052;-75
2022/07/09 01:26:35;;;;;;;1.17;0.75;;;;;;;21.45;53.84;101390.88;5092351;28;20051;-75
2022/07/09 01:29:03;;;;;;;0.60;0.60;;;;;;;21.58;53.19;101392.63;5091164;28;20052;-75
2022/07/09 01:31:31;;;;;;;2.03;0.90;;;;;;;21.63;52.39;101386.03;5092054;28;20048;-75
2022/07/09 01:33:59;;;;;;;0.93;0.85;;;;;;;21.81;52.70;101395.16;5091914;28;20394;-75
2022/07/09 01:36:28;;;;;;;2.00;0.88;;;;;;;21.75;52.98;101393.69;5091857;28;20048;-75
2022/07/09 01:38:55;;;;;;;0.77;0.73;;;;;;;21.76;52.05;101384.19;5091662;28;20048;-75
2022/07/09 01:41:23;;;;;;;0.77;0.75;;;;;;;21.65;52.43;101397.63;5092364;28;20044;-75
2022/07/09 01:43:52;;;;;;;1.17;0.80;;;;;;;21.58;52.55;101386.22;5091566;28;20044;-75
2022/07/09 01:46:20;;;;;;;0.52;0.52;;;;;;;21.51;52.27;101380.38;5092070;28;20411;-75
2022/07/09 01:48:48;;;;;;;1.60;0.63;;;;;;;21.43;52.95;101380.09;5091727;28;20047;-75
2022/07/09 01:51:16;;;;;;;1.80;0.73;;;;;;;21.41;52.35;101390.72;5074306;28;20402;-75
2022/07/09 01:53:45;;;;;;;1.55;0.63;;;;;;;21.54;51.86;101377.72;5071993;28;20045;-75
2022/07/09 01:56:13;;;;;;;0.77;0.60;;;;;;;21.66;51.21;101371.44;5071590;28;20060;-75
2022/07/09 01:58:41;;;;;;;1.10;0.73;;;;;;;21.72;50.80;101381.28;5071894;28;20040;-75
2022/07/09 02:01:09;;;;;;;0.60;0.60;;;;;;;21.80;51.23;101376.78;5071462;28;20048;-75
2022/07/09 02:03:36;;;;;;;0.50;0.50;;;;;;;21.76;51.64;101384.19;5071360;28;20048;-75
2022/07/09 02:06:04;;;;;;;0.93;0.60;;;;;;;21.85;50.79;101381.34;5071752;28;20056;-75
2022/07/09 02:08:32;;;;;;;1.00;0.90;;;;;;;21.67;51.11;101384.22;5071478;28;20044;-75
2022/07/09 02:11:01;;;;;;;0.77;0.50;;;;;;;21.71;50.89;101382.41;5063627;28;20048;-75
2022/07/09 02:13:29;;;;;;;1.50;0.70;;;;;;;21.78;51.20;101379.09;5069599;28;20395;-75
2022/07/09 02:15:57;;;;;;;1.95;0.85;;;;;;;21.74;51.83;101381.75;5071606;28;20041;-75
2022/07/09 02:18:25;;;;;;;0.70;0.70;;;;;;;21.59;52.17;101376.72;5071693;28;20067;-75
2022/07/09 02:20:55;;;;;;;0.47;0.43;;;;;;;21.52;52.25;101377.25;5071668;28;20044;-75
2022/07/09 02:23:23;;;;;;;0.40;0.40;;;;;;;21.38;52.83;101376.66;5070998;28;20045;-75
2022/07/09 02:25:51;;;;;;;0.60;0.60;;;;;;;21.29;53.33;101379.47;5059399;28;20063;-75
2022/07/09 02:28:19;;;;;;;0.65;0.50;;;;;;;21.20;54.54;101377.56;5071268;28;20048;-75
2022/07/09 02:30:47;;;;;;;2.63;0.70;;;;;;;21.11;54.90;101375.97;5071009;28;20048;-75
2022/07/09 02:33:15;;;;;;;4.60;1.33;;;;;;;21.12;55.69;101372.03;5070792;28;20052;-75
2022/07/09 02:35:43;;;;;;;1.73;0.77;;;;;;;21.12;55.76;101383.16;5074971;28;20399;-75
2022/07/09 02:38:11;;;;;;;2.30;0.70;;;;;;;21.02;56.46;101376.00;5075104;28;20051;-75
2022/07/09 02:40:39;;;;;;;1.10;1.00;;;;;;;20.85;56.96;101372.09;5073608;28;20495;-75
2022/07/09 02:43:07;;;;;;;1.10;0.70;;;;;;;20.73;56.63;101371.94;5074899;28;20056;-75
2022/07/09 02:45:35;;;;;;;0.82;0.80;;;;;;;20.64;56.49;101369.97;5075008;28;20395;-75
2022/07/09 02:48:03;;;;;;;1.27;0.70;;;;;;;20.56;56.81;101376.38;5074807;28;20057;-75
2022/07/09 02:50:31;;;;;;;0.82;0.75;;;;;;;20.54;57.16;101387.03;5074883;28;20522;-75
2022/07/09 02:52:58;;;;;;;0.70;0.60;;;;;;;20.53;57.29;101365.94;5074858;28;20044;-75
2022/07/09 02:55:26;;;;;;;1.00;0.98;;;;;;;20.58;57.30;101371.31;5074382;28;20075;-75
2022/07/09 02:57:54;;;;;;;0.68;0.65;;;;;;;20.80;56.68;101369.47;5074913;28;20075;-75
2022/07/09 03:00:22;;;;;;;2.30;0.90;;;;;;;20.82;55.85;101372.72;5074662;28;20052;-75
2022/07/09 03:02:50;;;;;;;0.98;0.77;;;;;;;20.84;56.09;101373.22;5074122;28;20059;-75
2022/07/09 03:05:18;;;;;;;0.70;0.68;;;;;;;20.86;55.77;101379.31;5074342;28;20040;-75
2022/07/09 03:07:46;;;;;;;1.95;0.90;;;;;;;20.90;55.68;101376.66;5074706;28;20048;-75
2022/07/09 03:10:14;;;;;;;0.73;0.70;;;;;;;20.93;56.37;101384.38;5074386;28;20056;-75
2022/07/09 03:12:42;;;;;;;0.80;0.80;;;;;;;20.92;56.47;101382.75;5074911;28;20503;-75
2022/07/09 03:15:12;;;;;;;0.63;0.63;;;;;;;20.94;56.10;101392.38;5074607;28;20037;-75
2022/07/09 03:17:40;;;;;;;0.65;0.65;;;;;;;21.04;54.86;101384.81;5074141;28;20075;-75
2022/07/09 03:20:10;;;;;;;0.88;0.68;;;;;;;21.15;55.09;101396.38;5072172;28;20479;-75
2022/07/09 03:22:38;;;;;;;1.95;0.80;;;;;;;21.27;55.69;101392.94;5063305;28;20055;-75
2022/07/09 03:25:07;;;;;;;0.95;0.90;;;;;;;21.19;56.43;101398.19;5072350;28;20044;-75
2022/07/09 03:27:35;;;;;;;1.52;1.02;;;;;;;21.07;56.61;101387.75;5066108;28;20049;-76
2022/07/09 03:30:04;;;;;;;2.05;0.93;;;;;;;21.25;56.12;101398.00;5073401;28;20372;-75
2022/07/09 03:32:32;;;;;;;0.65;0.65;;;;;;;21.23;56.60;101403.91;5074153;28;20068;-75
2022/07/09 03:35:00;;;;;;;1.50;1.00;;;;;;;21.18;56.73;101399.34;5074041;28;20049;-74
2022/07/09 03:37:28;;;;;;;0.85;0.65;;;;;;;21.16;56.82;101398.84;5073966;28;20399;-75
2022/07/09 03:39:56;;;;;;;0.73;0.70;;;;;;;21.07;56.86;101396.09;5073811;28;20075;-74
2022/07/09 03:42:26;;;;;;;1.13;0.80;;;;;;;21.14;56.53;101403.94;5065827;28;20515;-74
2022/07/09 03:44:54;;;;;;;0.85;0.73;;;;;;;20.98;57.11;101394.50;5067597;28;20048;-75
2022/07/09 03:47:23;;;;;;;1.23;0.90;;;;;;;20.80;57.81;101398.09;5079008;28;20056;-75
2022/07/09 03:49:51;;;;;;;1.08;0.75;;;;;;;20.72;58.81;101404.50;5088208;28;20403;-75
2022/07/09 03:52:19;;;;;;;1.63;1.10;;;;;;;20.76;57.88;101413.00;5073940;28;20107;-75
2022/07/09 03:54:49;;;;;;;0.98;0.73;;;;;;;20.89;57.51;101400.91;5073685;28;20048;-75
2022/07/09 03:57:17;;;;;;;2.47;0.85;;;;;;;20.90;58.46;101394.19;5073685;28;20414;-75
2022/07/09 03:59:45;;;;;;;1.25;0.90;;;;;;;21.06;52.37;101404.75;5073480;28;20040;-75
2022/07/09 04:02:13;;;;;;;1.00;0.90;;;;;;;21.29;49.51;101410.09;5073216;28;20049;-75
2022/07/09 04:04:43;;;;;;;1.60;1.00;;;;;;;21.46;47.93;101410.03;5073190;28;20052;-75
2022/07/09 04:07:11;;;;;;;0.93;0.75;;;;;;;21.64;47.44;101407.16;5061554;28;20056;-76
2022/07/09 04:09:39;;;;;;;0.57;0.57;;;;;;;21.69;47.69;101412.53;5073207;28;20483;-75
2022/07/09 04:12:07;;;;;;;1.27;0.88;;;;;;;21.83;47.41;101409.53;5072086;28;20053;-76
2022/07/09 04:14:35;;;;;;;1.20;1.10;;;;;;;21.91;45.28;101413.44;5064574;28;20051;-75
2022/07/09 04:17:03;;;;;;;1.92;0.63;;;;;;;21.95;46.06;101422.72;5068465;28;20055;-76
2022/07/09 04:19:31;;;;;;;0.73;0.73;;;;;;;21.90;45.48;101428.53;5064962;28;20052;-76
2022/07/09 04:22:00;;;;;;;0.60;0.47;;;;;;;21.91;47.07;101421.78;5073281;28;20048;-75
2022/07/09 04:24:28;;;;;;;1.05;0.75;;;;;;;22.02;45.93;101433.34;5067387;28;20053;-75
2022/07/09 04:26:56;;;;;;;0.80;0.80;;;;;;;22.12;46.40;101437.72;5065861;28;20048;-75
2022/07/09 04:29:24;;;;;;;1.67;0.90;;;;;;;22.15;45.33;101425.91;5070436;28;20040;-75
2022/07/09 04:31:52;;;;;;;0.57;0.57;;;;;;;22.31;45.88;101433.63;5070470;28;20032;-76
2022/07/09 04:34:20;;;;;;;1.38;0.77;;;;;;;22.39;46.16;101435.56;5072826;28;20044;-75
2022/07/09 04:36:49;;;;;;;0.52;0.52;;;;;;;22.45;45.38;101434.19;5072667;28;20044;-75
2022/07/09 04:39:17;;;;;;;1.20;0.50;;;;;;;22.51;46.07;101432.00;5072795;28;20095;-76
2022/07/09 04:41:45;;;;;;;0.80;0.73;;;;;;;22.61;45.35;101430.78;5072672;28;20049;-76
2022/07/09 04:44:15;;;;;;;0.52;0.52;;;;;;;22.69;45.72;101433.50;5072455;28;20052;-76
2022/07/09 04:46:44;;;;;;;1.38;0.70;;;;;;;22.79;44.14;101437.81;5071952;28;20069;-76
2022/07/09 04:49:12;;;;;;;0.60;0.60;;;;;;;22.82;44.73;101442.72;5064591;28;20487;-75
2022/07/09 04:51:40;;;;;;;0.55;0.55;;;;;;;22.91;44.22;101433.44;5072405;28;20051;-76
2022/07/09 04:54:07;;;;;;;1.58;0.80;;;;;;;23.04;44.79;101426.75;5072571;28;20072;-76
2022/07/09 04:56:35;;;;;;;1.02;0.80;;;;;;;23.23;43.42;101430.97;5071951;28;20407;-76
2022/07/09 04:59:03;;;;;;;0.40;0.40;;;;;;;23.39;43.10;101435.91;5072630;28;20048;-76
2022/07/09 05:01:31;;;;;;;3.53;0.75;;;;;;;23.54;42.39;101428.81;5072170;28;20049;-76
2022/07/09 05:03:59;;;;;;;0.75;0.75;;;;;;;23.69;42.90;101435.69;5069788;28;20044;-76
2022/07/09 05:06:27;;;;;;;0.55;0.55;;;;;;;23.72;43.30;101432.19;5067416;28;20055;-76
2022/07/09 05:08:55;;;;;;;0.85;0.52;;;;;;;23.79;42.12;101437.22;5071317;28;20395;-76
2022/07/09 05:11:24;;;;;;;0.38;0.35;;;;;;;23.88;42.26;101435.91;5071759;28;20063;-76
2022/07/09 05:13:51;;;;;;;0.88;0.82;;;;;;;24.00;40.96;101451.03;5069837;28;20067;-76
2022/07/09 05:16:19;;;;;;;1.20;1.10;;;;;;;24.09;41.59;101448.94;5065980;28;20052;-76
2022/07/09 05:18:47;;;;;;;0.43;0.43;;;;;;;24.09;41.54;101445.34;5071986;28;20055;-76
2022/07/09 05:21:15;;;;;;;0.68;0.45;;;;;;;24.14;40.80;101445.91;5070365;28;20051;-76
2022/07/09 05:23:44;;;;;;;0.55;0.55;;;;;;;24.09;40.36;101445.34;5072113;28;20043;-76
2022/07/09 05:26:12;;;;;;;0.52;0.52;;;;;;;24.20;40.36;101451.25;5072025;28;20053;-76
2022/07/09 05:28:41;;;;;;;1.30;0.52;;;;;;;24.24;40.46;101441.00;5069264;28;20106;-76
2022/07/09 05:31:09;;;;;;;0.93;0.70;;;;;;;24.22;41.04;101446.94;5065088;28;20059;-76
2022/07/09 05:33:56;;;;;;;1.40;0.98;;;;;;;24.49;40.27;101443.72;5071034;28;20049;-76
2022/07/09 05:36:24;;;;;;;0.65;0.65;;;;;;;24.65;39.91;101444.59;5067067;28;20045;-76
2022/07/09 05:38:53;;;;;;;0.77;0.57;;;;;;;24.75;40.61;101448.88;5066238;28;20391;-76
2022/07/09 05:41:22;;;;;;;1.63;0.80;;;;;;;24.88;40.41;101455.25;5064695;28;20051;-75
2022/07/09 05:43:51;;;;;;;0.68;0.65;;;;;;;24.91;40.44;101451.75;5069489;28;20387;-76
2022/07/09 05:46:20;;;;;;;1.13;0.55;;;;;;;24.66;41.06;101462.19;5071293;28;20064;-75
2022/07/09 05:48:49;;;;;;;0.60;0.60;;;;;;;24.91;40.79;101460.13;5071680;28;20040;-77
2022/07/09 05:51:17;;;;;;;1.40;0.70;;;;;;;24.90;41.28;101455.72;5071231;28;20036;-76
2022/07/09 05:53:45;;;;;;;0.85;0.65;;;;;;;24.85;40.69;101464.38;5071293;28;20049;-77
2022/07/09 05:56:13;;;;;;;0.75;0.65;;;;;;;24.95;40.61;101466.66;5071803;28;20060;-77
2022/07/09 05:58:40;;;;;;;0.60;0.60;;;;;;;24.66;41.09;101471.41;5071425;28;20053;-76
2022/07/09 06:01:38;;;;;;;2.78;0.88;;;;;;;24.85;40.89;101466.34;5065927;28;20506;-77
2022/07/09 06:04:07;;;;;;;0.82;0.80;;;;;;;24.96;41.41;101454.28;5064915;28;20487;-78
2022/07/09 06:06:36;;;;;;;0.95;0.68;;;;;;;25.09;40.65;101459.81;5080339;28;20055;-81
2022/07/09 06:09:04;;;;;;;2.35;0.88;;;;;;;25.23;40.15;101456.56;5060782;28;20411;-81
2022/07/09 06:11:32;;;;;;;1.17;0.70;;;;;;;25.26;39.86;101452.25;5070790;28;20056;-81
2022/07/09 06:14:00;;;;;;;0.60;0.55;;;;;;;25.19;39.59;101453.69;5060812;28;20054;-81
2022/07/09 06:16:28;;;;;;;0.82;0.52;;;;;;;25.14;40.02;101453.13;5037180;28;20067;-81
2022/07/09 06:18:56;;;;;;;1.40;0.93;;;;;;;25.30;39.97;101451.16;5056776;28;20048;-81
2022/07/09 06:21:24;;;;;;;1.88;0.60;;;;;;;25.40;39.62;101458.19;5045566;28;20040;-81
2022/07/09 06:23:52;;;;;;;1.33;1.00;;;;;;;25.47;40.03;101454.78;5029280;28;20049;-81
2022/07/09 06:26:20;;;;;;;1.00;0.80;;;;;;;25.38;40.44;101451.31;5039202;28;20040;-81
2022/07/09 06:28:49;;;;;;;0.95;0.73;;;;;;;25.50;40.15;101462.44;5029315;28;20471;-81
2022/07/09 06:31:18;;;;;;;0.95;0.73;;;;;;;25.52;40.01;101448.91;5052065;28;20393;-81
2022/07/09 06:33:46;;;;;;;1.08;0.90;;;;;;;25.46;39.20;101451.16;5047206;28;20044;-80
2022/07/09 06:36:17;;;;;;;0.45;0.45;;;;;;;25.53;39.30;101455.31;5060841;28;20072;-80
2022/07/09 06:41:32;;;;;;;1.95;0.50;;;;;;;25.79;38.77;101456.78;5060886;28;20051;-80
2022/07/09 06:44:00;;;;;;;1.85;0.63;;;;;;;25.84;38.36;101456.47;5066425;28;20044;-80
2022/07/09 06:46:28;;;;;;;0.95;0.85;;;;;;;25.83;38.52;101460.44;5047472;28;20059;-80
2022/07/09 06:48:58;;;;;;;0.50;0.50;;;;;;;25.95;39.06;101453.94;5066061;28;20048;-80
2022/07/09 06:51:26;;;;;;;0.68;0.68;;;;;;;26.06;38.54;101455.00;5051271;28;20059;-80
2022/07/09 06:53:54;;;;;;;0.90;0.70;;;;;;;26.03;38.54;101455.72;5036350;28;20045;-79
2022/07/09 06:56:23;;;;;;;0.82;0.63;;;;;;;25.89;38.36;101447.78;5052758;28;20044;-79
2022/07/09 06:58:51;;;;;;;0.60;0.60;;;;;;;26.06;38.66;101465.38;5076255;28;20047;-80
2022/07/09 07:01:19;;;;;;;0.47;0.47;;;;;;;26.27;38.23;101453.88;5071345;28;20048;-80
2022/07/09 07:03:48;;;;;;;1.27;0.82;;;;;;;26.38;38.12;101454.91;5065929;28;20040;-80
2022/07/09 07:06:16;;;;;;;0.60;0.60;;;;;;;26.17;38.13;101458.03;5055775;28;20048;-79
2022/07/09 07:08:44;;;;;;;2.35;0.52;;;;;;;26.14;38.25;101453.97;5031801;28;20060;-80
2022/07/09 07:11:12;;;;;;;1.33;0.73;;;;;;;26.30;38.86;101456.75;5068448;28;20052;-80
2022/07/09 07:13:40;;;;;;;0.73;0.68;;;;;;;26.16;38.77;101457.19;5075741;28;20047;-80
2022/07/09 07:16:08;;;;;;;0.90;0.52;;;;;;;26.39;38.87;101459.34;5062408;28;20052;-80
2022/07/09 07:18:36;;;;;;;0.82;0.35;;;;;;;26.17;39.27;101456.06;5061788;28;20044;-79
2022/07/09 07:21:05;;;;;;;0.70;0.70;;;;;;;26.38;39.25;101468.09;5072116;28;20071;-80
2022/07/09 07:23:34;;;;;;;2.95;0.50;;;;;;;26.19;38.91;101450.06;5055956;28;20044;-80
2022/07/09 07:26:02;;;;;;;2.28;0.85;;;;;;;26.41;38.62;101459.78;5037172;28;20040;-80
2022/07/09 07:28:30;;;;;;;0.52;0.40;;;;;;;26.47;38.49;101465.91;5056501;28;20060;-80
2022/07/09 07:30:59;;;;;;;1.25;0.60;;;;;;;26.48;38.90;101455.50;5037526;28;20044;-80
2022/07/09 07:33:27;;;;;;;1.23;0.63;;;;;;;26.44;38.92;101449.78;5054239;28;20040;-80
2022/07/09 07:35:55;;;;;;;0.77;0.47;;;;;;;26.44;39.28;101449.78;5054899;28;20048;-79
2022/07/09 07:38:27;;;;;;;1.17;0.63;;;;;;;26.54;39.02;101454.81;5054974;28;20048;-80
2022/07/09 07:40:55;;;;;;;0.77;0.50;;;;;;;26.40;39.47;101449.72;5055283;28;20048;-80
2022/07/09 07:43:42;;;;;;;0.30;0.30;;;;;;;26.39;39.44;101458.53;5054864;28;20052;-80
2022/07/09 07:46:35;;;;;;;0.47;0.47;;;;;;;26.40;39.36;101449.72;5066577;28;20518;-79
2022/07/09 07:49:07;;;;;;;0.45;0.45;;;;;;;26.48;39.09;101456.31;5038771;28;20048;-80
2022/07/09 07:51:35;;;;;;;0.93;0.68;;;;;;;26.36;39.04;101451.66;5059559;28;20048;-80
2022/07/09 07:54:03;;;;;;;0.73;0.57;;;;;;;26.59;38.86;101456.56;5036520;28;20392;-81
2022/07/09 07:56:36;;;;;;;1.38;0.80;;;;;;;26.60;39.17;101460.16;5055317;28;20051;-80
2022/07/09 07:59:04;;;;;;;0.52;0.52;;;;;;;26.41;39.75;101444.94;5051460;28;20037;-82
2022/07/09 08:01:34;;;;;;;1.92;0.70;;;;;;;26.70;39.30;101445.53;5053991;28;20045;-81
2022/07/09 08:04:04;;;;;;;1.52;0.70;;;;;;;26.70;39.15;101445.53;5054102;28;20060;-80
2022/07/09 08:06:35;;;;;;;2.45;0.77;;;;;;;26.40;39.65;101448.94;5051630;28;20045;-80
2022/07/09 08:09:05;;;;;;;0.55;0.50;;;;;;;26.49;39.63;101463.53;5051546;28;20053;-80
2022/07/09 08:11:34;;;;;;;0.65;0.65;;;;;;;26.49;40.32;101443.09;5052039;28;20048;-79
2022/07/09 08:14:06;;;;;;;0.98;0.40;;;;;;;26.42;39.94;101452.16;5053869;28;20052;-80
2022/07/09 08:16:35;;;;;;;0.60;0.60;;;;;;;26.35;39.64;101447.25;5051516;28;20060;-81
2022/07/09 08:19:04;;;;;;;0.65;0.65;;;;;;;26.54;39.55;101449.22;5052845;28;20047;-80
2022/07/09 08:21:32;;;;;;;1.38;0.70;;;;;;;26.86;39.47;101450.22;5037422;28;20055;-81
2022/07/09 08:24:04;;;;;;;0.70;0.70;;;;;;;26.88;39.40;101459.09;5054022;28;20041;-80
2022/07/09 08:26:32;;;;;;;1.23;0.60;;;;;;;26.86;40.00;101450.22;5053981;28;20525;-81
2022/07/09 08:29:00;;;;;;;1.00;0.60;;;;;;;26.73;40.48;101453.19;5053512;28;20047;-79
2022/07/09 08:31:28;;;;;;;1.08;0.70;;;;;;;26.78;40.43;101447.28;5031172;28;20051;-79
2022/07/09 08:33:57;;;;;;;1.60;0.55;;;;;;;26.99;40.38;101440.50;5043414;28;20052;-79
2022/07/09 08:36:25;;;;;;;2.15;0.70;;;;;;;27.03;40.63;101441.34;5052644;28;20061;-80
2022/07/09 08:38:53;;;;;;;0.75;0.60;;;;;;;27.05;40.28;101447.41;5036116;28;20483;-78
2022/07/09 08:41:23;;;;;;;0.63;0.55;;;;;;;27.13;40.23;101447.53;5028182;28;20061;-78
2022/07/09 08:43:54;;;;;;;0.85;0.60;;;;;;;27.30;39.68;101449.84;5053865;28;20052;-80
2022/07/09 08:46:22;;;;;;;1.83;0.70;;;;;;;26.99;39.58;101451.72;5052663;28;20051;-79
2022/07/09 08:48:52;;;;;;;2.63;0.60;;;;;;;26.86;40.50;101431.38;5015483;28;20061;-79
2022/07/09 08:51:22;;;;;;;4.28;0.63;;;;;;;27.18;40.34;101444.44;5019310;28;20057;-79
2022/07/09 08:53:53;;;;;;;6.63;1.10;;;;;;;27.30;40.61;101438.63;5016710;28;20045;-79
2022/07/09 08:56:22;;;;;;;0.80;0.80;;;;;;;27.40;39.71;101439.16;5015761;28;20045;-79
2022/07/09 08:58:50;;;;;;;0.32;0.32;;;;;;;27.32;39.96;101441.84;5033006;28;20049;-78
2022/07/09 09:01:18;;;;;;;0.50;0.50;;;;;;;27.32;40.10;101425.00;5032646;28;20049;-79
2022/07/09 09:03:46;;;;;;;1.25;0.80;;;;;;;27.59;40.18;101439.13;5032420;28;21423;-80
2022/07/09 09:06:15;;;;;;;0.75;0.50;;;;;;;27.54;39.56;101433.78;5047867;28;20479;-80
2022/07/09 09:08:44;;;;;;;0.82;0.82;;;;;;;27.48;39.98;101421.25;5033410;28;20041;-80
2022/07/09 09:11:22;;;;;;;2.58;1.00;;;;;;;27.77;39.68;101433.75;5031963;28;20045;-79
2022/07/09 09:13:51;;;;;;;0.75;0.60;;;;;;;27.92;39.40;101425.53;5032928;28;20052;-79
2022/07/09 09:16:19;;;;;;;1.23;0.60;;;;;;;27.83;39.77;101433.44;5033854;28;20045;-79
2022/07/09 09:18:50;;;;;;;2.10;1.02;;;;;;;27.81;39.87;101433.00;5033313;28;20056;-79
2022/07/09 09:21:24;;;;;;;1.33;0.70;;;;;;;27.74;39.60;101406.41;5033677;28;20045;-79
2022/07/09 09:23:55;;;;;;;3.72;0.85;;;;;;;27.78;39.46;101428.97;5032544;28;20051;-79
2022/07/09 09:26:24;;;;;;;1.35;0.68;;;;;;;27.68;39.24;101427.63;5033617;28;20056;-78
2022/07/09 09:28:58;;;;;;;3.30;0.98;;;;;;;27.60;39.73;101420.25;5032693;28;20037;-79
2022/07/09 09:31:26;;;;;;;0.80;0.77;;;;;;;27.74;39.40;101417.66;5016828;28;20052;-79
2022/07/09 09:33:56;;;;;;;2.40;0.70;;;;;;;27.94;39.38;101402.69;5032601;28;20049;-79
2022/07/09 09:36:30;;;;;;;1.00;0.70;;;;;;;28.08;39.24;101408.47;5033474;28;20064;-80
2022/07/09 09:39:21;;;;;;;5.00;0.70;;;;;;;28.20;38.37;101404.59;5048300;28;20048;-81
2022/07/09 09:41:50;;;;;;;1.77;1.05;;;;;;;28.20;39.02;101409.44;5032792;28;20063;-80
2022/07/09 09:44:36;;;;;;;2.50;0.93;;;;;;;28.22;38.61;101412.66;5027420;28;20056;-81
2022/07/09 09:47:07;;;;;;;1.33;1.20;;;;;;;28.47;38.05;101412.19;5026052;28;20044;-81
2022/07/09 09:49:37;;;;;;;0.82;0.80;;;;;;;28.20;38.43;101398.97;5053124;28;20045;-80
2022/07/09 09:52:07;;;;;;;5.00;0.73;;;;;;;28.03;39.19;101400.38;5049917;28;20488;-81
2022/07/09 09:54:38;;;;;;;2.58;0.90;;;;;;;27.50;40.23;101390.75;5050108;28;20593;-81
2022/07/09 09:57:09;;;;;;;1.08;0.80;;;;;;;27.44;39.88;101395.91;5025293;28;20048;-82
2022/07/09 09:59:40;;;;;;;2.95;1.40;;;;;;;27.40;40.86;101391.38;5049509;28;20052;-82
2022/07/09 10:02:12;;;;;;;1.25;1.15;;;;;;;27.79;40.17;101393.19;5044389;28;20053;-82
2022/07/09 10:04:43;;;;;;;0.93;0.93;;;;;;;27.91;39.76;101381.75;5042511;28;20044;-82
2022/07/09 10:07:36;;;;;;;1.40;1.05;;;;;;;28.13;39.45;101387.63;5062863;28;20052;-82
2022/07/09 10:10:07;;;;;;;1.10;1.00;;;;;;;28.28;38.70;101377.41;5056289;28;20044;-82
2022/07/09 10:12:41;;;;;;;2.13;1.10;;;;;;;28.67;38.64;101384.66;5073013;28;20044;-82
2022/07/09 10:15:26;;;;;;;1.35;0.95;;;;;;;28.88;38.54;101389.72;5056158;28;20529;-81
2022/07/09 10:17:55;;;;;;;1.63;1.33;;;;;;;28.67;38.26;101381.84;5058379;28;20491;-82
2022/07/09 10:20:36;;;;;;;1.15;1.08;;;;;;;28.46;39.41;101385.25;5068527;28;20056;-82
2022/07/09 10:23:05;;;;;;;1.27;1.08;;;;;;;28.04;39.31;101385.13;5072866;28;20398;-82
2022/07/09 10:25:46;;;;;;;1.58;1.20;;;;;;;28.06;40.13;101377.13;5055677;28;20052;-82
2022/07/09 10:28:16;;;;;;;9.10;1.50;;;;;;;27.89;39.50;101378.47;5044530;28;20045;-83
2022/07/09 10:30:45;;;;;;;1.10;1.00;;;;;;;28.02;39.18;101376.25;5049715;28;20162;-81
2022/07/09 10:33:21;;;;;;;0.85;0.85;;;;;;;28.19;38.55;101374.06;5047254;28;20048;-82
2022/07/09 10:35:52;;;;;;;0.70;0.70;;;;;;;28.53;37.96;101365.59;5043375;28;20044;-83
2022/07/09 10:38:22;;;;;;;1.83;1.00;;;;;;;28.87;37.10;101367.59;5065304;28;20511;-83
2022/07/09 10:41:01;;;;;;;0.60;0.60;;;;;;;28.67;37.53;101376.22;5069899;28;20036;-83
2022/07/09 10:43:46;;;;;;;3.35;1.23;;;;;;;28.42;37.97;101371.94;5072310;28;20056;-82
2022/07/09 10:46:15;;;;;;;0.55;0.55;;;;;;;28.83;36.89;101370.31;5072784;28;20059;-82
2022/07/09 10:48:47;;;;;;;0.70;0.70;;;;;;;29.08;36.86;101373.41;5057410;28;20059;-82
2022/07/09 10:51:20;;;;;;;2.28;0.95;;;;;;;29.24;35.45;101370.31;5051900;28;20052;-82
2022/07/09 10:53:48;;;;;;;0.85;0.70;;;;;;;29.06;36.01;101372.19;5045816;28;20053;-82
2022/07/09 10:56:24;;;;;;;0.45;0.45;;;;;;;29.18;35.83;101369.06;5044003;28;20052;-82
2022/07/09 10:58:53;;;;;;;0.75;0.70;;;;;;;29.02;36.26;101357.28;5048970;28;20436;-82
2022/07/09 11:01:27;;;;;;;0.55;0.55;;;;;;;29.40;35.90;101357.94;5035771;28;20051;-82
2022/07/09 11:03:55;;;;;;;0.60;0.60;;;;;;;29.81;34.67;101348.53;5051379;28;20056;-81
2022/07/09 11:06:23;;;;;;;0.63;0.63;;;;;;;30.13;34.12;101347.09;5052880;28;20040;-82
2022/07/09 11:08:52;;;;;;;1.67;1.35;;;;;;;29.85;34.71;101340.09;5036800;28;20051;-82
2022/07/09 11:11:21;;;;;;;0.80;0.80;;;;;;;29.02;35.49;101348.81;5050847;28;20045;-82
2022/07/09 11:13:54;;;;;;;1.08;0.70;;;;;;;29.34;34.77;101336.97;5050751;28;20052;-82
2022/07/09 11:16:24;;;;;;;0.88;0.70;;;;;;;29.78;33.82;101327.56;5050087;28;20045;-82
2022/07/09 11:18:53;;;;;;;0.88;0.88;;;;;;;30.03;33.65;101329.72;5038740;28;20044;-82
2022/07/09 11:21:24;;;;;;;0.80;0.80;;;;;;;30.32;32.97;101329.00;5048850;28;20045;-83
2022/07/09 11:23:52;;;;;;;1.00;0.80;;;;;;;30.68;33.22;101328.25;5037882;28;20053;-82
2022/07/09 11:43:18;;;;;;;1.30;0.88;;;;;;;30.62;31.74;101307.25;4966955;23;20063;-81
2022/07/09 11:45:53;;;;;;;1.15;0.65;;;;;;;30.82;32.63;101305.69;4915542;29;20048;-81
2022/07/09 11:48:21;;;;;;;0.95;0.68;;;;;;;30.60;32.05;101302.03;4914238;29;20055;-81
2022/07/09 11:50:49;;;;;;;1.15;0.80;;;;;;;30.52;32.04;101306.06;4927673;29;20044;-80
2022/07/09 11:53:26;;;;;;;0.63;0.63;;;;;;;30.56;32.28;101296.38;4913289;29;20067;-81
2022/07/09 11:56:00;;;;;;;1.85;0.73;;;;;;;30.70;31.63;101294.81;4912741;29;20049;-81